Gwynneville, Indiana
Current Conditions -  °F | °C
As of 2:53 PM on Thursday 30 Oct 2014 (Local Time) from KGEZ Reporting Station
Clear Clear  
Wind Chill: 53°   Ceiling: Unl
Heat Index: 53°   Visibility: 10mi
Dew Point: 34°   Wind: 5mph
Humidity: 48%   Direction: 220°SW
Pressure: 30.09"   Gusts: NA
Location:  39.66°N, 85.65°W
Report Text: KGEZ 301853Z AUTO 22004KT 10SM CLR 12/01 A3009 RMK AO2 SLP192 T01170011
Loading
Personal Weather Stations






























Interactive Weather Map
Tropical Storm Tracking
New forecast layout! Learn more

10-Day Weather Forecast

Advertisements
Track Severe Weather on mobile